createdAt,value
2017-09-19T00:01:54.882Z,60.30
2017-09-19T00:04:22.405Z,60.20
2017-09-19T00:06:49.963Z,60.80
2017-09-19T00:09:19.008Z,61.10
2017-09-19T00:11:46.530Z,61.10
2017-09-19T00:14:14.822Z,61.40
2017-09-19T00:16:43.110Z,61.00
2017-09-19T00:19:10.660Z,61.00
2017-09-19T00:21:38.191Z,60.70
2017-09-19T00:24:05.811Z,60.60
2017-09-19T00:26:33.334Z,60.30
2017-09-19T00:29:00.862Z,61.30
2017-09-19T00:31:28.409Z,60.70
2017-09-19T00:33:55.941Z,61.30
2017-09-19T00:36:23.466Z,60.90
2017-09-19T00:38:51.003Z,60.60
2017-09-19T00:41:19.301Z,60.90
2017-09-19T00:43:46.858Z,61.70
2017-09-19T00:46:15.161Z,60.90
2017-09-19T00:48:42.682Z,60.90
2017-09-19T00:51:10.974Z,61.10
2017-09-19T00:53:38.505Z,61.10
2017-09-19T00:56:06.874Z,61.00
2017-09-19T00:58:34.398Z,60.60
2017-09-19T01:01:01.917Z,60.70
2017-09-19T01:03:30.205Z,60.90
2017-09-19T01:05:57.738Z,60.90
2017-09-19T01:08:26.058Z,61.00
2017-09-19T01:10:53.590Z,61.00
2017-09-19T01:13:21.118Z,60.80
2017-09-19T01:15:48.642Z,61.10
2017-09-19T01:18:16.166Z,61.70
2017-09-19T01:20:43.722Z,61.60
2017-09-19T01:23:12.014Z,61.50
2017-09-19T01:25:39.538Z,61.50
2017-09-19T01:28:07.838Z,61.70
2017-09-19T01:30:35.362Z,61.70
2017-09-19T01:33:02.922Z,62.00
2017-09-19T01:35:30.446Z,61.70
2017-09-19T01:37:57.970Z,61.40
2017-09-19T01:40:25.495Z,61.20
2017-09-19T01:42:53.017Z,61.20
2017-09-19T01:45:20.578Z,61.00
2017-09-19T01:47:48.106Z,61.20
2017-09-19T01:50:15.648Z,61.00
2017-09-19T01:52:43.942Z,61.00
2017-09-19T01:55:11.520Z,61.00
2017-09-19T01:57:39.082Z,61.10
2017-09-19T02:00:06.615Z,61.10
2017-09-19T02:02:34.156Z,61.30
2017-09-19T02:05:02.477Z,61.20
2017-09-19T02:07:30.001Z,61.20
2017-09-19T02:09:58.318Z,61.20
2017-09-19T02:12:25.842Z,61.10
2017-09-19T02:14:53.393Z,61.30
2017-09-19T02:17:21.682Z,61.50
2017-09-19T02:19:49.210Z,61.40
2017-09-19T02:22:16.761Z,61.40
2017-09-19T02:24:44.289Z,61.30
2017-09-19T02:27:11.823Z,61.80
2017-09-19T02:29:39.354Z,61.30
2017-09-19T02:32:07.656Z,61.60
2017-09-19T02:34:35.216Z,61.60
2017-09-19T02:37:02.742Z,61.40
2017-09-19T02:39:31.038Z,61.50
2017-09-19T02:41:58.565Z,61.40
2017-09-19T02:44:26.094Z,61.30
2017-09-19T02:46:53.641Z,61.30
2017-09-19T02:49:21.165Z,61.30
2017-09-19T02:51:48.695Z,61.80
2017-09-19T02:54:16.222Z,61.80
2017-09-19T02:56:43.750Z,62.60
2017-09-19T02:59:11.305Z,61.60
2017-09-19T03:01:38.825Z,61.90
2017-09-19T03:04:06.352Z,62.00
2017-09-19T03:06:33.877Z,61.70
2017-09-19T03:09:01.400Z,61.40
2017-09-19T03:11:28.954Z,61.40
2017-09-19T03:13:56.482Z,61.20
2017-09-19T03:16:24.006Z,61.00
2017-09-19T03:18:51.529Z,61.30
2017-09-19T03:21:19.062Z,61.20
2017-09-19T03:23:46.630Z,61.00
2017-09-19T03:26:14.150Z,60.80
2017-09-19T03:28:41.678Z,60.80
2017-09-19T03:31:09.970Z,61.20
2017-09-19T03:33:37.498Z,61.20
2017-09-19T03:36:05.052Z,61.20
2017-09-19T03:38:32.574Z,61.20
2017-09-19T03:41:00.098Z,61.00
2017-09-19T03:43:28.386Z,61.50
2017-09-19T03:45:55.915Z,61.50
2017-09-19T03:48:24.243Z,60.80
2017-09-19T03:50:51.778Z,61.40
2017-09-19T03:53:19.303Z,61.70
2017-09-19T03:55:46.825Z,61.90
2017-09-19T03:58:14.351Z,62.10
2017-09-19T04:00:41.911Z,63.30
2017-09-19T04:03:09.434Z,63.20
2017-09-19T04:05:36.958Z,62.80
2017-09-19T04:08:04.482Z,62.70
2017-09-19T04:10:32.007Z,62.20
2017-09-19T04:12:59.566Z,61.80
2017-09-19T04:15:27.089Z,61.40
2017-09-19T04:17:54.622Z,61.10
2017-09-19T04:20:22.154Z,61.20
2017-09-19T04:22:50.446Z,61.20
2017-09-19T04:25:18.011Z,61.10
2017-09-19T04:27:45.534Z,61.00
2017-09-19T04:30:13.062Z,61.10
2017-09-19T04:32:40.594Z,60.70
2017-09-19T04:35:08.126Z,60.80
2017-09-19T04:37:36.543Z,61.00
2017-09-19T04:40:06.743Z,60.90
2017-09-19T04:42:34.273Z,60.80
2017-09-19T04:45:02.575Z,60.40
2017-09-19T04:47:30.667Z,60.40
2017-09-19T04:49:58.209Z,60.50
2017-09-19T04:52:25.734Z,60.60
2017-09-19T04:54:53.261Z,61.50
2017-09-19T04:57:20.777Z,61.30
2017-09-19T04:59:48.302Z,62.10
2017-09-19T05:02:15.862Z,62.80
2017-09-19T05:04:43.389Z,63.40
2017-09-19T05:07:10.937Z,63.20
2017-09-19T05:09:38.466Z,63.40
2017-09-19T05:12:05.993Z,63.40
2017-09-19T05:14:33.542Z,62.80
2017-09-19T05:17:01.066Z,62.80
2017-09-19T05:19:28.633Z,62.30
2017-09-19T05:21:56.167Z,61.70
2017-09-19T05:24:23.690Z,61.60
2017-09-19T05:26:51.246Z,61.10
2017-09-19T05:29:18.770Z,60.90
2017-09-19T05:31:46.308Z,61.10
2017-09-19T05:34:13.829Z,60.90
2017-09-19T05:36:42.122Z,60.40
2017-09-19T05:39:10.437Z,60.30
2017-09-19T05:41:37.961Z,60.30
2017-09-19T05:44:05.486Z,60.00
2017-09-19T05:46:33.010Z,59.80
2017-09-19T05:49:00.547Z,59.50
2017-09-19T05:51:28.098Z,59.10
2017-09-19T05:53:55.622Z,58.70
2017-09-19T05:56:23.142Z,58.80
2017-09-19T05:58:50.718Z,59.20
2017-09-19T06:01:18.238Z,58.90
2017-09-19T06:03:45.789Z,58.80
2017-09-19T06:06:13.314Z,59.00
2017-09-19T06:08:52.858Z,59.20
2017-09-19T06:11:20.382Z,59.00
2017-09-19T06:13:47.913Z,58.90
2017-09-19T06:16:15.450Z,58.40
2017-09-19T06:18:43.741Z,58.70
2017-09-19T06:21:11.285Z,58.70
2017-09-19T06:23:39.579Z,58.00
2017-09-19T06:26:07.109Z,58.00
2017-09-19T06:28:35.402Z,57.90
2017-09-19T06:31:02.929Z,57.80
2017-09-19T06:33:30.486Z,57.80
2017-09-19T06:35:58.030Z,57.70
2017-09-19T06:38:25.552Z,57.60
2017-09-19T06:40:53.077Z,57.60
2017-09-19T06:43:21.389Z,57.40
2017-09-19T06:45:48.938Z,57.40
2017-09-19T06:48:16.473Z,57.60
2017-09-19T06:50:44.771Z,57.70
2017-09-19T06:53:12.301Z,57.70
2017-09-19T06:55:40.593Z,58.40
2017-09-19T06:58:08.913Z,58.20
2017-09-19T07:00:36.433Z,58.20
2017-09-19T07:03:03.957Z,58.10
2017-09-19T07:05:31.490Z,58.20
2017-09-19T07:07:59.014Z,57.90
2017-09-19T07:10:26.576Z,57.70
2017-09-19T07:12:54.098Z,57.80
2017-09-19T07:15:22.398Z,57.20
2017-09-19T07:17:49.926Z,57.20
2017-09-19T07:20:17.456Z,57.30
2017-09-19T07:22:45.014Z,57.60
2017-09-19T07:25:12.537Z,57.10
2017-09-19T07:27:40.066Z,56.90
2017-09-19T07:30:08.364Z,57.50
2017-09-19T07:32:35.899Z,56.80
2017-09-19T07:35:04.198Z,56.30
2017-09-19T07:37:31.722Z,56.30
2017-09-19T07:39:59.277Z,56.10
2017-09-19T07:42:26.802Z,55.90
2017-09-19T07:44:54.340Z,55.30
2017-09-19T07:47:21.867Z,55.60
2017-09-19T07:49:50.165Z,55.50
2017-09-19T07:52:17.724Z,55.40
2017-09-19T07:54:45.256Z,55.90
2017-09-19T07:57:12.782Z,55.40
2017-09-19T07:59:40.310Z,55.00
2017-09-19T08:02:07.885Z,54.60
2017-09-19T08:04:35.426Z,54.40
2017-09-19T08:07:02.954Z,54.30
2017-09-19T08:09:30.502Z,53.80
2017-09-19T08:11:58.037Z,54.10
2017-09-19T08:14:25.557Z,53.90
2017-09-19T08:16:53.118Z,53.40
2017-09-19T08:19:20.647Z,53.40
2017-09-19T08:21:48.948Z,52.50
2017-09-19T08:24:16.474Z,52.40
2017-09-19T08:26:43.994Z,52.30
2017-09-19T08:29:11.550Z,52.00
2017-09-19T08:31:39.080Z,51.70
2017-09-19T08:34:06.602Z,50.50
2017-09-19T08:36:34.126Z,50.20
2017-09-19T08:39:01.646Z,51.30
2017-09-19T08:41:29.961Z,51.30
2017-09-19T08:43:57.482Z,51.20
2017-09-19T08:46:25.775Z,50.90
2017-09-19T08:48:53.305Z,50.80
2017-09-19T08:51:21.605Z,50.40
2017-09-19T08:53:49.165Z,50.30
2017-09-19T08:56:16.694Z,49.60
2017-09-19T08:58:44.986Z,49.00
2017-09-19T09:01:12.574Z,48.90
2017-09-19T09:03:40.105Z,49.00
2017-09-19T09:06:07.661Z,49.60
2017-09-19T09:08:35.950Z,48.50
2017-09-19T09:11:03.483Z,48.50
2017-09-19T09:13:31.777Z,47.30
2017-09-19T09:15:59.310Z,47.10
2017-09-19T09:18:27.629Z,46.60
2017-09-19T09:20:55.170Z,46.60
2017-09-19T09:23:22.705Z,45.80
2017-09-19T09:25:51.002Z,44.30
2017-09-19T09:28:18.534Z,44.20
2017-09-19T09:30:46.091Z,43.60
2017-09-19T09:33:13.618Z,42.60
2017-09-19T09:35:41.157Z,43.90
2017-09-19T09:38:08.681Z,43.40
2017-09-19T09:40:36.969Z,43.50
2017-09-19T09:43:04.528Z,43.50
2017-09-19T09:45:32.062Z,44.00
2017-09-19T09:47:59.587Z,43.90
2017-09-19T09:50:27.110Z,44.40
2017-09-19T09:52:54.630Z,44.80
2017-09-19T09:55:22.190Z,45.20
2017-09-19T09:57:49.714Z,44.80
2017-09-19T10:00:17.246Z,43.60
2017-09-19T10:02:44.769Z,43.30
2017-09-19T10:05:12.290Z,42.60
2017-09-19T10:07:39.850Z,42.40
2017-09-19T10:10:07.378Z,42.60
2017-09-19T10:12:34.902Z,41.80
2017-09-19T10:15:02.430Z,42.90
2017-09-19T10:17:29.957Z,43.00
2017-09-19T10:19:57.525Z,42.80
2017-09-19T10:22:25.050Z,42.90
2017-09-19T10:24:53.342Z,41.50
2017-09-19T10:27:20.866Z,41.50
2017-09-19T10:29:48.390Z,40.70
2017-09-19T10:32:15.942Z,40.50
2017-09-19T10:34:43.470Z,39.20
2017-09-19T10:37:10.998Z,37.90
2017-09-19T10:39:38.522Z,36.20
2017-09-19T10:42:06.066Z,35.80
2017-09-19T10:44:33.621Z,35.00
2017-09-19T10:47:01.149Z,33.50
2017-09-19T10:49:29.441Z,30.90
2017-09-19T10:51:56.981Z,30.80
2017-09-19T10:54:25.273Z,30.60
2017-09-19T10:56:52.830Z,30.50
2017-09-19T10:59:20.359Z,29.50
2017-09-19T11:01:47.890Z,30.00
2017-09-19T11:04:15.422Z,29.90
2017-09-19T11:06:42.959Z,28.60
2017-09-19T11:09:10.521Z,28.80
2017-09-19T11:11:38.050Z,28.80
2017-09-19T11:14:05.576Z,28.10
2017-09-19T11:16:33.138Z,28.10
2017-09-19T11:19:00.666Z,27.30
2017-09-19T11:21:28.217Z,27.80
2017-09-19T11:23:55.743Z,27.50
2017-09-19T11:26:23.270Z,26.60
2017-09-19T11:28:50.798Z,26.00
2017-09-19T11:31:18.322Z,26.60
2017-09-19T11:33:45.879Z,26.10
2017-09-19T11:36:13.413Z,25.50
2017-09-19T11:38:40.939Z,26.70
2017-09-19T11:41:08.466Z,27.30
2017-09-19T11:43:36.758Z,27.40
2017-09-19T11:46:04.290Z,27.30
2017-09-19T11:48:31.902Z,27.20
2017-09-19T11:50:59.422Z,26.60
2017-09-19T11:53:27.733Z,25.60
2017-09-19T11:55:55.257Z,25.60
2017-09-19T11:58:23.549Z,25.80
2017-09-19T12:00:51.078Z,25.80
2017-09-19T12:03:18.606Z,25.10
2017-09-19T12:05:46.130Z,25.90
2017-09-19T12:08:13.654Z,26.20
2017-09-19T12:10:41.175Z,26.50
2017-09-19T12:13:08.698Z,26.20
2017-09-19T12:15:36.222Z,26.40
2017-09-19T12:18:03.745Z,25.70
2017-09-19T12:20:31.270Z,26.40
2017-09-19T12:22:58.797Z,27.00
2017-09-19T12:25:26.321Z,27.00
2017-09-19T12:27:53.860Z,26.20
2017-09-19T12:30:21.389Z,26.80
2017-09-19T12:32:49.706Z,26.70
2017-09-19T12:35:17.242Z,27.20
2017-09-19T12:37:44.773Z,26.30
2017-09-19T12:40:13.093Z,27.10
2017-09-19T12:42:40.622Z,26.50
2017-09-19T12:45:08.910Z,27.90
2017-09-19T12:47:36.466Z,27.90
2017-09-19T12:50:04.006Z,27.60
2017-09-19T12:52:32.301Z,28.50
2017-09-19T12:54:59.859Z,28.40
2017-09-19T12:57:27.392Z,28.80
2017-09-19T12:59:54.914Z,27.20
2017-09-19T13:02:22.470Z,28.30
2017-09-19T13:04:49.997Z,28.40
2017-09-19T13:07:17.534Z,28.40
2017-09-19T13:09:45.850Z,26.80
2017-09-19T13:12:13.373Z,26.70
2017-09-19T13:14:41.662Z,26.60
2017-09-19T13:17:09.220Z,26.60
2017-09-19T13:19:36.750Z,26.80
2017-09-19T13:22:04.278Z,26.20
2017-09-19T13:24:31.805Z,25.60
2017-09-19T13:26:59.340Z,25.80
2017-09-19T13:29:27.662Z,25.60
2017-09-19T13:32:07.112Z,25.50
2017-09-19T13:34:34.713Z,23.70
2017-09-19T13:37:03.010Z,23.90
2017-09-19T13:39:30.538Z,23.90
2017-09-19T13:41:58.061Z,23.90
2017-09-19T13:44:25.603Z,23.70
2017-09-19T13:46:53.168Z,25.00
2017-09-19T13:49:20.697Z,24.40
2017-09-19T13:51:48.233Z,24.30
2017-09-19T13:54:16.535Z,24.20
2017-09-19T13:56:44.062Z,24.20
2017-09-19T13:59:11.617Z,24.30
2017-09-19T14:01:39.152Z,24.40
2017-09-19T14:04:06.679Z,23.90
2017-09-19T14:06:34.214Z,23.60
2017-09-19T14:09:02.504Z,22.40
2017-09-19T14:11:30.202Z,22.30
2017-09-19T14:13:57.734Z,21.90
2017-09-19T14:16:25.326Z,22.00
2017-09-19T14:18:52.849Z,21.60
2017-09-19T14:21:20.383Z,22.10
2017-09-19T14:23:48.704Z,21.40
2017-09-19T14:26:16.238Z,21.40
2017-09-19T14:28:43.762Z,21.60
2017-09-19T14:31:11.306Z,21.40
2017-09-19T14:33:38.836Z,21.60
2017-09-19T14:36:06.412Z,21.30
2017-09-19T14:38:33.946Z,21.40
2017-09-19T14:41:01.486Z,21.40
2017-09-19T14:43:29.019Z,21.30
2017-09-19T14:45:56.546Z,21.90
2017-09-19T14:48:24.099Z,23.00
2017-09-19T14:50:53.042Z,22.80
2017-09-19T14:53:21.325Z,23.00
2017-09-19T14:55:49.609Z,23.20
2017-09-19T14:58:17.453Z,23.10
2017-09-19T15:00:45.802Z,23.90
2017-09-19T15:03:13.334Z,23.80
2017-09-19T15:05:40.950Z,24.00
2017-09-19T15:08:09.238Z,24.80
2017-09-19T15:10:36.764Z,24.70
2017-09-19T15:13:04.714Z,24.70
2017-09-19T15:15:32.238Z,25.00
2017-09-19T15:17:59.757Z,26.30
2017-09-19T15:20:27.286Z,26.90
2017-09-19T15:22:54.817Z,27.00
2017-09-19T15:25:22.370Z,27.40
2017-09-19T15:27:49.902Z,27.90
2017-09-19T15:30:18.196Z,27.90
2017-09-19T15:32:45.722Z,27.90
2017-09-19T15:35:13.377Z,28.00
2017-09-19T15:37:41.176Z,28.30
2017-09-19T15:40:08.733Z,28.60
2017-09-19T15:42:37.022Z,30.70
2017-09-19T15:45:04.574Z,30.60
2017-09-19T15:47:32.106Z,31.50
2017-09-19T15:49:59.658Z,32.60
2017-09-19T15:52:27.190Z,33.10
2017-09-19T15:54:54.705Z,34.30
2017-09-19T15:57:22.237Z,34.70
2017-09-19T15:59:50.532Z,36.40
2017-09-19T16:02:18.861Z,36.60
2017-09-19T16:04:46.397Z,36.60
2017-09-19T16:07:13.923Z,37.20
2017-09-19T16:09:42.214Z,38.50
2017-09-19T16:12:09.739Z,38.40
2017-09-19T16:14:37.291Z,38.60
2017-09-19T16:17:04.818Z,39.20
2017-09-19T16:19:32.341Z,39.90
2017-09-19T16:21:59.865Z,40.10
2017-09-19T16:24:27.390Z,40.80
2017-09-19T16:26:54.954Z,41.40
2017-09-19T16:29:22.510Z,41.70
2017-09-19T16:31:50.034Z,41.70
2017-09-19T16:34:17.566Z,42.20
2017-09-19T16:36:45.090Z,42.40
2017-09-19T16:39:12.652Z,42.40
2017-09-19T16:41:40.178Z,43.10
2017-09-19T16:44:07.709Z,42.50
2017-09-19T16:46:36.002Z,43.40
2017-09-19T16:49:03.530Z,43.40
2017-09-19T16:51:32.002Z,43.50
2017-09-19T16:53:59.530Z,44.10
2017-09-19T16:56:27.054Z,44.90
2017-09-19T16:58:54.586Z,45.00
2017-09-19T17:01:22.145Z,44.70
2017-09-19T17:03:49.702Z,45.60
2017-09-19T17:06:17.226Z,46.40
2017-09-19T17:08:44.767Z,46.20
2017-09-19T17:11:12.294Z,46.20
2017-09-19T17:13:40.585Z,46.20
2017-09-19T17:16:08.142Z,46.20
2017-09-19T17:18:35.674Z,46.50
2017-09-19T17:21:03.977Z,47.00
2017-09-19T17:23:31.510Z,46.90
2017-09-19T17:25:59.818Z,48.10
2017-09-19T17:28:27.374Z,47.30
2017-09-19T17:30:54.905Z,48.10
2017-09-19T17:33:23.206Z,48.60
2017-09-19T17:35:50.738Z,48.60
2017-09-19T17:38:19.045Z,48.80
2017-09-19T17:40:46.605Z,48.70
2017-09-19T17:43:14.130Z,49.00
2017-09-19T17:45:41.656Z,49.20
2017-09-19T17:48:09.181Z,49.30
2017-09-19T17:50:36.706Z,49.60
2017-09-19T17:53:05.035Z,50.00
2017-09-19T17:55:32.576Z,50.00
2017-09-19T17:58:00.101Z,50.20
2017-09-19T18:00:28.402Z,50.90
2017-09-19T18:02:58.359Z,50.70
2017-09-19T18:05:30.934Z,50.90
2017-09-19T18:08:07.710Z,50.80
2017-09-19T18:10:36.522Z,51.30
2017-09-19T18:13:04.073Z,51.20
2017-09-19T18:15:31.598Z,51.50
2017-09-19T18:17:59.134Z,51.70
2017-09-19T18:20:26.666Z,51.70
2017-09-19T18:22:54.998Z,51.80
2017-09-19T18:25:22.542Z,51.80
2017-09-19T18:27:50.070Z,51.70
2017-09-19T18:30:18.581Z,52.00
2017-09-19T18:32:46.118Z,51.80
2017-09-19T18:35:13.674Z,52.10
2017-09-19T18:37:41.966Z,52.30
2017-09-19T18:40:09.502Z,52.30
2017-09-19T18:42:37.821Z,52.90
2017-09-19T18:45:05.347Z,52.80
2017-09-19T18:47:32.906Z,53.30
2017-09-19T18:50:00.496Z,53.30
2017-09-19T18:52:28.025Z,52.90
2017-09-19T18:54:55.551Z,53.20
2017-09-19T18:57:23.082Z,53.40
2017-09-19T18:59:50.643Z,53.60
2017-09-19T19:02:18.174Z,53.50
2017-09-19T19:04:45.703Z,53.50
2017-09-19T19:07:14.933Z,53.70
2017-09-19T19:09:42.462Z,53.70
2017-09-19T19:12:10.796Z,53.70
2017-09-19T19:14:38.330Z,53.60
2017-09-19T19:17:05.866Z,54.10
2017-09-19T19:19:33.397Z,54.40
2017-09-19T19:22:00.927Z,54.80
2017-09-19T19:24:28.477Z,55.00
2017-09-19T19:26:56.004Z,54.90
2017-09-19T19:29:23.565Z,55.00
2017-09-19T19:31:51.243Z,55.20
2017-09-19T19:34:18.907Z,55.20
2017-09-19T19:36:46.462Z,55.30
2017-09-19T19:39:14.006Z,55.20
2017-09-19T19:41:41.534Z,55.30
2017-09-19T19:44:09.834Z,55.40
2017-09-19T19:46:37.362Z,55.30
2017-09-19T19:49:04.910Z,55.40
2017-09-19T19:51:32.445Z,55.60
2017-09-19T19:53:59.995Z,55.90
2017-09-19T19:56:27.523Z,56.20
2017-09-19T19:58:55.086Z,56.20
2017-09-19T20:01:22.642Z,56.20
2017-09-19T20:03:50.174Z,56.30
2017-09-19T20:06:18.473Z,56.50
2017-09-19T20:08:46.018Z,56.50
2017-09-19T20:11:14.310Z,56.70
2017-09-19T20:13:41.857Z,56.70
2017-09-19T20:16:10.154Z,56.80
2017-09-19T20:18:37.698Z,56.70
2017-09-19T20:21:05.995Z,56.70
2017-09-19T20:23:33.522Z,56.60
2017-09-19T20:26:01.873Z,56.60
2017-09-19T20:28:29.402Z,56.60
2017-09-19T20:30:56.962Z,56.70
2017-09-19T20:33:24.489Z,56.70
2017-09-19T20:35:52.018Z,57.00
2017-09-19T20:38:19.579Z,57.00
2017-09-19T20:40:47.102Z,56.80
2017-09-19T20:43:14.646Z,57.10
2017-09-19T20:45:42.170Z,56.90
2017-09-19T20:48:10.470Z,57.30
2017-09-19T20:50:38.027Z,57.30
2017-09-19T20:53:05.557Z,57.30
2017-09-19T20:55:33.846Z,57.00
2017-09-19T20:58:02.129Z,56.90
2017-09-19T21:00:29.661Z,56.90
2017-09-19T21:02:57.492Z,57.20
2017-09-19T21:05:30.832Z,57.10
2017-09-19T21:08:04.727Z,57.20
2017-09-19T21:10:37.897Z,57.20
2017-09-19T21:13:11.283Z,57.10
2017-09-19T21:15:44.370Z,57.10
2017-09-19T21:18:17.663Z,57.40
2017-09-19T21:20:45.185Z,57.70
2017-09-19T21:23:12.710Z,57.50
2017-09-19T21:25:41.012Z,57.30
2017-09-19T21:28:08.545Z,57.20
2017-09-19T21:30:36.870Z,57.20
2017-09-19T21:33:04.409Z,57.10
2017-09-19T21:35:31.942Z,57.30
2017-09-19T21:38:00.255Z,57.10
2017-09-19T21:40:27.779Z,57.00
2017-09-19T21:42:56.104Z,57.20
2017-09-19T21:45:23.633Z,57.10
2017-09-19T21:47:51.161Z,57.10
2017-09-19T21:50:18.758Z,57.20
2017-09-19T21:52:46.308Z,57.20
2017-09-19T21:55:13.854Z,57.10
2017-09-19T21:57:42.142Z,56.80
2017-09-19T22:00:09.678Z,56.80
2017-09-19T22:02:38.010Z,57.50
2017-09-19T22:05:05.542Z,56.80
2017-09-19T22:07:33.093Z,56.80
2017-09-19T22:10:00.623Z,56.90
2017-09-19T22:12:28.154Z,57.00
2017-09-19T22:14:55.677Z,57.10
2017-09-19T22:17:23.212Z,57.00
2017-09-19T22:19:51.638Z,56.90
2017-09-19T22:22:19.162Z,56.90
2017-09-19T22:24:46.751Z,56.90
2017-09-19T22:27:14.277Z,57.00
2017-09-19T22:29:42.577Z,56.90
2017-09-19T22:32:10.126Z,56.90
2017-09-19T22:34:37.655Z,56.90
2017-09-19T22:37:05.949Z,57.50
2017-09-19T22:39:33.482Z,57.50
2017-09-19T22:42:01.011Z,57.50
2017-09-19T22:44:28.569Z,57.40
2017-09-19T22:46:56.111Z,57.40
2017-09-19T22:49:23.653Z,57.40
2017-09-19T22:51:51.178Z,57.20
2017-09-19T22:54:19.474Z,57.50
2017-09-19T22:56:47.794Z,57.40
2017-09-19T22:59:15.319Z,57.40
2017-09-19T23:01:42.848Z,57.40
2017-09-19T23:04:11.150Z,57.10
2017-09-19T23:06:38.674Z,57.10
2017-09-19T23:09:06.231Z,57.40
2017-09-19T23:11:34.543Z,57.20
2017-09-19T23:14:02.066Z,57.20
2017-09-19T23:16:29.590Z,57.40
2017-09-19T23:18:57.116Z,57.40
2017-09-19T23:21:24.670Z,57.40
2017-09-19T23:23:52.958Z,57.60
2017-09-19T23:26:20.485Z,57.60
2017-09-19T23:28:48.782Z,57.30
2017-09-19T23:31:16.309Z,57.30
2017-09-19T23:33:43.870Z,57.40
2017-09-19T23:36:12.174Z,57.50
2017-09-19T23:38:39.704Z,57.50
2017-09-19T23:41:07.239Z,57.50
2017-09-19T23:43:34.762Z,57.50
2017-09-19T23:46:02.318Z,57.50
2017-09-19T23:48:29.865Z,57.50
2017-09-19T23:50:57.394Z,57.60
2017-09-19T23:53:24.921Z,57.60
2017-09-19T23:55:52.449Z,57.50
2017-09-19T23:58:19.998Z,57.60
